Time;durP1;ratioP1;P1;durP2;ratioP2;P2;SDS_P1;SDS_P2;PMS_P1;PMS_P2;Temp;Humidity;BMP_temperature;BMP_pressure;BME280_temperature;BME280_humidity;BME280_pressure;Samples;Min_cycle;Max_cycle;Signal;HPM_P1;HPM_P2
2021/10/02 00:36:09;;;;;;;0.10;0.10;;;;;;;;;;4990095;28;20081;-96
2021/10/02 00:44:38;;;;;;;0.10;0.10;;;;;;;;;;5007041;28;20038;-95
2021/10/02 00:47:18;;;;;;;0.10;0.10;;;;;;;;;;5005792;28;20050;-94
2021/10/02 00:49:45;;;;;;;0.10;0.10;;;;;;;;;;4983069;28;20100;-95
2021/10/02 00:52:12;;;;;;;0.10;0.10;;;;;;;;;;4970561;28;20060;-96
2021/10/02 00:54:39;;;;;;;0.10;0.10;;;;;;;;;;4976754;28;20065;-94
2021/10/02 00:57:33;;;;;;;0.10;0.10;;;;;;;;;;5000104;28;20046;-96
2021/10/02 01:00:03;;;;;;;0.10;0.10;;;;;;;;;;5002385;28;20045;-96
2021/10/02 01:02:52;;;;;;;0.10;0.10;;;;;;;;;;4969492;28;20042;-96
2021/10/02 01:05:33;;;;;;;0.10;0.10;;;;;;;;;;4984213;28;20046;-96
2021/10/02 01:08:20;;;;;;;0.10;0.10;;;;;;;;;;4978078;28;20089;-94
2021/10/02 01:11:05;;;;;;;0.10;0.10;;;;;;;;;;4991527;28;20221;-96
2021/10/02 01:13:37;;;;;;;0.20;0.20;;;;;;;;;;4966627;28;20042;-96
2021/10/02 01:16:13;;;;;;;0.20;0.20;;;;;;;;;;4967888;28;20045;-96
2021/10/02 01:18:42;;;;;;;0.10;0.10;;;;;;;;;;4967529;28;20044;-94
2021/10/02 01:21:39;;;;;;;0.10;0.10;;;;;;;;;;4976635;28;20037;-94
2021/10/02 01:24:13;;;;;;;0.10;0.10;;;;;;;;;;4988641;28;20050;-96
2021/10/02 01:27:01;;;;;;;0.20;0.20;;;;;;;;;;4981494;28;20121;-95
2021/10/02 01:29:36;;;;;;;0.10;0.10;;;;;;;;;;4966627;28;20045;-96
2021/10/02 01:32:21;;;;;;;0.10;0.10;;;;;;;;;;4993560;28;20041;-96
2021/10/02 01:35:26;;;;;;;0.10;0.10;;;;;;;;;;5002316;28;20057;-96
2021/10/02 01:48:52;;;;;;;0.10;0.10;;;;;;;;;;5010029;28;20049;-94
2021/10/02 01:51:19;;;;;;;0.10;0.10;;;;;;;;;;5011351;28;20085;-94
2021/10/02 01:53:50;;;;;;;0.10;0.10;;;;;;;;;;4979742;28;20110;-94
2021/10/02 01:56:42;;;;;;;0.17;0.17;;;;;;;;;;4970922;28;20060;-94
2021/10/02 01:59:40;;;;;;;0.10;0.10;;;;;;;;;;4978763;28;20102;-93
2021/10/02 02:02:32;;;;;;;0.10;0.10;;;;;;;;;;4993777;28;20035;-93
2021/10/02 02:05:32;;;;;;;0.10;0.10;;;;;;;;;;4977102;28;20054;-95
2021/10/02 02:08:56;;;;;;;0.10;0.10;;;;;;;;;;4972661;29;20539;-96
2021/10/02 02:11:45;;;;;;;0.10;0.10;;;;;;;;;;4956820;29;20050;-96
2021/10/02 02:14:20;;;;;;;0.10;0.10;;;;;;;;;;4955651;29;20055;-93
2021/10/02 02:16:46;;;;;;;0.10;0.10;;;;;;;;;;4955154;29;20479;-95
2021/10/02 02:19:12;;;;;;;0.10;0.10;;;;;;;;;;4906883;29;20043;-96
2021/10/02 02:21:38;;;;;;;0.20;0.20;;;;;;;;;;4907152;29;20098;-95
2021/10/02 02:24:05;;;;;;;0.10;0.10;;;;;;;;;;4922851;29;20054;-95
2021/10/02 02:26:31;;;;;;;0.10;0.10;;;;;;;;;;4922028;29;20539;-96
2021/10/02 02:28:58;;;;;;;0.10;0.10;;;;;;;;;;4906266;29;20047;-95
2021/10/02 02:31:24;;;;;;;0.10;0.10;;;;;;;;;;4906603;29;20079;-95
2021/10/02 02:33:50;;;;;;;0.10;0.10;;;;;;;;;;4906226;29;20054;-94
2021/10/02 02:36:16;;;;;;;0.10;0.10;;;;;;;;;;4905930;29;20047;-95
2021/10/02 02:38:42;;;;;;;0.10;0.10;;;;;;;;;;4911715;28;20051;-93
2021/10/02 02:41:09;;;;;;;0.10;0.10;;;;;;;;;;4956809;28;20402;-96
2021/10/02 02:43:36;;;;;;;0.10;0.10;;;;;;;;;;4973612;28;20582;-96
2021/10/02 02:46:05;;;;;;;0.10;0.10;;;;;;;;;;4963293;28;20054;-96
2021/10/02 02:48:54;;;;;;;0.10;0.10;;;;;;;;;;4966633;28;20150;-96
2021/10/02 02:51:42;;;;;;;0.10;0.10;;;;;;;;;;4963501;28;20618;-96
2021/10/02 02:54:32;;;;;;;0.10;0.10;;;;;;;;;;4956636;28;20039;-96
2021/10/02 02:57:02;;;;;;;0.10;0.10;;;;;;;;;;4957187;28;20058;-96
2021/10/02 02:59:39;;;;;;;0.10;0.10;;;;;;;;;;4940570;28;20055;-95
2021/10/02 03:02:10;;;;;;;0.10;0.10;;;;;;;;;;4972673;28;20179;-95
2021/10/02 03:04:37;;;;;;;0.35;0.20;;;;;;;;;;4960533;28;20097;-95
2021/10/02 03:07:06;;;;;;;0.15;0.15;;;;;;;;;;4973829;28;20054;-96
2021/10/02 03:09:33;;;;;;;0.20;0.20;;;;;;;;;;4987243;28;20129;-96
2021/10/02 03:12:00;;;;;;;0.10;0.10;;;;;;;;;;4965297;28;20037;-96
2021/10/02 03:14:26;;;;;;;0.10;0.10;;;;;;;;;;4966609;28;20048;-95
2021/10/02 03:16:56;;;;;;;0.10;0.10;;;;;;;;;;5003919;28;20042;-96
2021/10/02 03:19:31;;;;;;;0.10;0.10;;;;;;;;;;5001920;28;20504;-96
2021/10/02 03:22:01;;;;;;;0.20;0.20;;;;;;;;;;4986049;28;20049;-94
2021/10/02 03:24:27;;;;;;;0.10;0.10;;;;;;;;;;4965730;28;20038;-96
2021/10/02 03:26:54;;;;;;;0.20;0.20;;;;;;;;;;4982208;28;20041;-95
2021/10/02 03:29:21;;;;;;;0.20;0.20;;;;;;;;;;4996786;28;20114;-94
2021/10/02 03:31:47;;;;;;;0.10;0.10;;;;;;;;;;4964918;28;20069;-94
2021/10/02 03:34:14;;;;;;;0.20;0.20;;;;;;;;;;4963932;28;20151;-96
2021/10/02 03:36:43;;;;;;;0.10;0.10;;;;;;;;;;4976302;28;20092;-94
2021/10/02 03:39:11;;;;;;;0.10;0.10;;;;;;;;;;4996245;28;20049;-96
2021/10/02 03:41:41;;;;;;;0.10;0.10;;;;;;;;;;4981270;28;20037;-96
2021/10/02 03:44:19;;;;;;;0.10;0.10;;;;;;;;;;4983354;28;20081;-96
2021/10/02 03:46:48;;;;;;;0.10;0.10;;;;;;;;;;4991315;28;20050;-96
2021/10/02 03:49:17;;;;;;;0.10;0.10;;;;;;;;;;4991975;28;20095;-96
2021/10/02 03:51:48;;;;;;;0.10;0.10;;;;;;;;;;5010257;28;20044;-95
2021/10/02 03:54:14;;;;;;;0.10;0.10;;;;;;;;;;4989111;28;20070;-96
2021/10/02 03:56:49;;;;;;;0.15;0.15;;;;;;;;;;4982924;28;20413;-95
2021/10/02 03:59:16;;;;;;;0.10;0.10;;;;;;;;;;4978744;28;20141;-95
2021/10/02 04:01:45;;;;;;;0.10;0.10;;;;;;;;;;4976702;28;20052;-96
2021/10/02 04:04:12;;;;;;;0.20;0.20;;;;;;;;;;5005039;28;20053;-95
2021/10/02 04:06:41;;;;;;;0.10;0.10;;;;;;;;;;4964023;28;20034;-96
2021/10/02 04:09:09;;;;;;;0.10;0.10;;;;;;;;;;4991203;28;20103;-95
2021/10/02 04:11:46;;;;;;;0.10;0.10;;;;;;;;;;5027648;28;20049;-95
2021/10/02 04:14:33;;;;;;;0.20;0.20;;;;;;;;;;5030425;28;20102;-94
2021/10/02 04:17:03;;;;;;;0.10;0.10;;;;;;;;;;4995887;28;20058;-94
2021/10/02 04:19:58;;;;;;;0.10;0.10;;;;;;;;;;5013642;28;20045;-93
2021/10/02 04:22:44;;;;;;;0.20;0.20;;;;;;;;;;4980937;28;20089;-96
2021/10/02 04:43:33;;;;;;;0.10;0.10;;;;;;;;;;5007387;28;20053;-92
2021/10/02 04:46:04;;;;;;;0.10;0.10;;;;;;;;;;5006804;28;20042;-96
2021/10/02 04:48:31;;;;;;;0.10;0.10;;;;;;;;;;4996459;28;20097;-96
2021/10/02 04:50:59;;;;;;;0.10;0.10;;;;;;;;;;4988677;28;20034;-93
2021/10/02 04:53:53;;;;;;;0.10;0.10;;;;;;;;;;4999781;28;20045;-96
2021/10/02 04:56:20;;;;;;;0.10;0.10;;;;;;;;;;4978702;28;20130;-95
2021/10/02 04:58:50;;;;;;;0.20;0.20;;;;;;;;;;4979735;28;20104;-95
2021/10/02 05:01:16;;;;;;;0.10;0.10;;;;;;;;;;4978835;28;20081;-93
2021/10/02 05:03:42;;;;;;;0.20;0.20;;;;;;;;;;4979139;28;20077;-94
2021/10/02 05:06:08;;;;;;;0.10;0.10;;;;;;;;;;4978328;28;20108;-94
2021/10/02 05:08:34;;;;;;;0.17;0.17;;;;;;;;;;4978695;28;20138;-95
2021/10/02 05:11:00;;;;;;;0.70;0.25;;;;;;;;;;4978894;28;20363;-94
2021/10/02 05:13:26;;;;;;;0.10;0.10;;;;;;;;;;4978628;28;20045;-93
2021/10/02 05:15:52;;;;;;;0.10;0.10;;;;;;;;;;4978488;28;20042;-94
2021/10/02 05:18:18;;;;;;;0.10;0.10;;;;;;;;;;4978321;28;20046;-94
2021/10/02 05:21:07;;;;;;;0.10;0.10;;;;;;;;;;4978721;28;20046;-94
2021/10/02 05:23:33;;;;;;;0.20;0.20;;;;;;;;;;4993829;28;20046;-94
2021/10/02 05:26:00;;;;;;;0.10;0.10;;;;;;;;;;4977925;28;20046;-95
2021/10/02 05:28:26;;;;;;;0.10;0.10;;;;;;;;;;4977931;28;20494;-94
2021/10/02 05:30:52;;;;;;;0.10;0.10;;;;;;;;;;4978298;28;20043;-94
2021/10/02 05:33:18;;;;;;;0.10;0.10;;;;;;;;;;4977259;28;20039;-92
2021/10/02 05:35:45;;;;;;;0.10;0.10;;;;;;;;;;4978428;28;20038;-94
2021/10/02 05:38:12;;;;;;;0.10;0.10;;;;;;;;;;4978492;28;20069;-93
2021/10/02 05:40:39;;;;;;;0.50;0.50;;;;;;;;;;4978247;28;20092;-93
2021/10/02 05:43:06;;;;;;;0.10;0.10;;;;;;;;;;4978367;28;20062;-94
2021/10/02 05:45:33;;;;;;;0.25;0.25;;;;;;;;;;4978592;28;20056;-94
2021/10/02 05:47:59;;;;;;;0.50;0.50;;;;;;;;;;4978336;28;20053;-93
2021/10/02 05:50:25;;;;;;;0.10;0.10;;;;;;;;;;4978226;28;20482;-94
2021/10/02 05:52:51;;;;;;;0.10;0.10;;;;;;;;;;4978626;28;20049;-92
2021/10/02 05:55:17;;;;;;;0.40;0.40;;;;;;;;;;4977054;28;20038;-90
2021/10/02 05:57:43;;;;;;;0.10;0.10;;;;;;;;;;4977126;28;20046;-94
2021/10/02 06:00:09;;;;;;;0.10;0.10;;;;;;;;;;4978264;28;20522;-95
2021/10/02 06:02:35;;;;;;;0.10;0.10;;;;;;;;;;4977220;28;20133;-93
2021/10/02 06:05:01;;;;;;;0.10;0.10;;;;;;;;;;4982080;28;20124;-91
2021/10/02 06:07:27;;;;;;;0.10;0.10;;;;;;;;;;4979830;28;20050;-93
2021/10/02 06:09:53;;;;;;;0.10;0.10;;;;;;;;;;4978524;28;20038;-95
2021/10/02 06:12:19;;;;;;;0.10;0.10;;;;;;;;;;4977691;28;20038;-93
2021/10/02 06:14:45;;;;;;;0.10;0.10;;;;;;;;;;4977149;28;20092;-94
2021/10/02 06:17:11;;;;;;;0.10;0.10;;;;;;;;;;4976978;28;20054;-94
2021/10/02 06:19:37;;;;;;;0.10;0.10;;;;;;;;;;4977301;28;20084;-94
2021/10/02 06:22:05;;;;;;;0.20;0.20;;;;;;;;;;4977098;28;20042;-95
2021/10/02 06:24:31;;;;;;;0.10;0.10;;;;;;;;;;4976994;28;20136;-93
2021/10/02 06:26:57;;;;;;;0.10;0.10;;;;;;;;;;4977036;28;20133;-94
2021/10/02 06:29:23;;;;;;;0.20;0.20;;;;;;;;;;4977278;28;20042;-94
2021/10/02 06:31:49;;;;;;;0.30;0.30;;;;;;;;;;4976991;28;20080;-94
2021/10/02 06:34:15;;;;;;;0.20;0.20;;;;;;;;;;4976906;28;20042;-95
2021/10/02 06:36:42;;;;;;;0.10;0.10;;;;;;;;;;4977069;28;20057;-94
2021/10/02 06:39:08;;;;;;;0.10;0.10;;;;;;;;;;4977016;28;20050;-94
2021/10/02 06:41:34;;;;;;;0.10;0.10;;;;;;;;;;4976908;28;20115;-94
2021/10/02 06:44:00;;;;;;;0.10;0.10;;;;;;;;;;4977066;28;20452;-93
2021/10/02 06:46:26;;;;;;;0.10;0.10;;;;;;;;;;4960707;28;20046;-93
2021/10/02 06:48:52;;;;;;;0.10;0.10;;;;;;;;;;4976870;28;20100;-95
2021/10/02 06:51:18;;;;;;;0.10;0.10;;;;;;;;;;4976690;28;20088;-94
2021/10/02 06:53:44;;;;;;;0.20;0.20;;;;;;;;;;4979123;28;20128;-93
2021/10/02 06:56:12;;;;;;;0.10;0.10;;;;;;;;;;5214548;23;20086;-93
2021/10/02 06:58:38;;;;;;;0.10;0.10;;;;;;;;;;5048347;23;20151;-94
2021/10/02 07:01:04;;;;;;;0.10;0.10;;;;;;;;;;5177646;23;20074;-92
2021/10/02 07:03:30;;;;;;;0.20;0.20;;;;;;;;;;4945693;28;20046;-92
2021/10/02 07:05:56;;;;;;;0.10;0.10;;;;;;;;;;4958568;28;20141;-92
2021/10/02 07:08:22;;;;;;;0.10;0.10;;;;;;;;;;4947258;28;20042;-92
2021/10/02 07:10:48;;;;;;;0.20;0.20;;;;;;;;;;4946219;28;20564;-91
2021/10/02 07:13:14;;;;;;;0.10;0.10;;;;;;;;;;4960219;28;20039;-92
2021/10/02 07:15:40;;;;;;;0.10;0.10;;;;;;;;;;4960509;28;20048;-92
2021/10/02 07:18:06;;;;;;;0.13;0.13;;;;;;;;;;4960184;28;20085;-92
2021/10/02 07:20:32;;;;;;;0.10;0.10;;;;;;;;;;4944793;28;20057;-94
2021/10/02 07:22:58;;;;;;;0.20;0.20;;;;;;;;;;4960721;28;20434;-94
2021/10/02 07:25:25;;;;;;;0.10;0.10;;;;;;;;;;4960654;28;20053;-93
2021/10/02 07:27:51;;;;;;;0.10;0.10;;;;;;;;;;4961160;28;20466;-91
2021/10/02 07:30:17;;;;;;;0.10;0.10;;;;;;;;;;4960627;28;20065;-92
2021/10/02 07:32:43;;;;;;;0.10;0.10;;;;;;;;;;4960638;28;20121;-93
2021/10/02 07:35:10;;;;;;;0.10;0.10;;;;;;;;;;4960304;28;20125;-95
2021/10/02 07:37:36;;;;;;;0.10;0.10;;;;;;;;;;4960701;28;20559;-94
2021/10/02 07:40:02;;;;;;;0.10;0.10;;;;;;;;;;4944253;28;20091;-95
2021/10/02 07:42:28;;;;;;;0.10;0.10;;;;;;;;;;4944162;28;20550;-94
2021/10/02 07:44:55;;;;;;;0.55;0.55;;;;;;;;;;4944128;28;20089;-94
2021/10/02 07:47:22;;;;;;;0.10;0.10;;;;;;;;;;4967561;28;20038;-95
2021/10/02 07:49:48;;;;;;;0.10;0.10;;;;;;;;;;4979283;28;20158;-95
2021/10/02 07:52:14;;;;;;;0.10;0.10;;;;;;;;;;4960725;28;20130;-93
2021/10/02 07:54:43;;;;;;;0.32;0.32;;;;;;;;;;4960848;28;20071;-93
2021/10/02 07:57:09;;;;;;;0.20;0.20;;;;;;;;;;4946954;28;20104;-91
2021/10/02 07:59:35;;;;;;;0.10;0.10;;;;;;;;;;4964077;28;20042;-93
2021/10/02 08:02:01;;;;;;;0.10;0.10;;;;;;;;;;4944581;28;20120;-93
2021/10/02 08:04:27;;;;;;;0.10;0.10;;;;;;;;;;4960325;28;20462;-90
2021/10/02 08:06:53;;;;;;;0.10;0.10;;;;;;;;;;4960507;28;20203;-93
2021/10/02 08:09:19;;;;;;;0.20;0.20;;;;;;;;;;4944342;28;20083;-92
2021/10/02 08:11:46;;;;;;;0.20;0.20;;;;;;;;;;4944622;28;20072;-93
2021/10/02 08:14:12;;;;;;;0.20;0.20;;;;;;;;;;4944466;28;20046;-92
2021/10/02 08:16:38;;;;;;;0.10;0.10;;;;;;;;;;4960457;28;20128;-96
2021/10/02 08:19:07;;;;;;;0.10;0.10;;;;;;;;;;4960748;28;20043;-94
2021/10/02 08:21:33;;;;;;;0.10;0.10;;;;;;;;;;4928895;28;20093;-89
2021/10/02 08:23:59;;;;;;;0.20;0.20;;;;;;;;;;4960767;28;20050;-92
2021/10/02 08:26:27;;;;;;;0.30;0.30;;;;;;;;;;4959930;28;20043;-91
2021/10/02 08:28:53;;;;;;;0.10;0.10;;;;;;;;;;4960240;28;20105;-92
2021/10/02 08:31:21;;;;;;;0.20;0.20;;;;;;;;;;4959531;28;20054;-91
2021/10/02 08:33:47;;;;;;;0.10;0.10;;;;;;;;;;4960235;28;20097;-92
2021/10/02 08:36:13;;;;;;;0.10;0.10;;;;;;;;;;4960100;28;20039;-91
2021/10/02 08:38:39;;;;;;;0.80;0.20;;;;;;;;;;4962735;28;20427;-92
2021/10/02 08:41:06;;;;;;;0.20;0.20;;;;;;;;;;4958484;28;20043;-93
2021/10/02 08:43:32;;;;;;;0.10;0.10;;;;;;;;;;4943844;28;20039;-92
2021/10/02 08:45:58;;;;;;;0.10;0.10;;;;;;;;;;4943643;28;20054;-92
2021/10/02 08:48:24;;;;;;;0.10;0.10;;;;;;;;;;4943546;28;20046;-89
2021/10/02 08:50:50;;;;;;;0.17;0.17;;;;;;;;;;4942407;28;20454;-89
2021/10/02 08:53:16;;;;;;;0.30;0.30;;;;;;;;;;4958330;28;20146;-90
2021/10/02 08:55:42;;;;;;;0.10;0.10;;;;;;;;;;4926565;28;20067;-88
2021/10/02 08:58:08;;;;;;;0.10;0.10;;;;;;;;;;4958113;28;20078;-90
2021/10/02 09:00:34;;;;;;;0.10;0.10;;;;;;;;;;4949855;28;20081;-89
2021/10/02 09:03:00;;;;;;;0.10;0.10;;;;;;;;;;4961539;28;20497;-88
2021/10/02 09:05:27;;;;;;;0.20;0.20;;;;;;;;;;4977741;28;20058;-90
2021/10/02 09:07:54;;;;;;;0.20;0.20;;;;;;;;;;4977794;28;20081;-91
2021/10/02 09:10:20;;;;;;;0.10;0.10;;;;;;;;;;4962529;28;20062;-92
2021/10/02 09:12:47;;;;;;;0.20;0.20;;;;;;;;;;4946489;28;20045;-93
2021/10/02 09:15:15;;;;;;;0.10;0.10;;;;;;;;;;4946401;28;20145;-93
2021/10/02 09:17:41;;;;;;;0.10;0.10;;;;;;;;;;4962766;28;20486;-94
2021/10/02 09:20:08;;;;;;;0.10;0.10;;;;;;;;;;4963093;28;20505;-94
2021/10/02 09:22:34;;;;;;;0.10;0.10;;;;;;;;;;4962482;28;20049;-94
2021/10/02 09:25:02;;;;;;;0.10;0.10;;;;;;;;;;4962623;28;20042;-96
2021/10/02 09:28:06;;;;;;;0.10;0.10;;;;;;;;;;4993651;28;20097;-88
2021/10/02 09:30:59;;;;;;;0.10;0.10;;;;;;;;;;4990185;28;20046;-93
2021/10/02 09:33:25;;;;;;;0.40;0.40;;;;;;;;;;4978812;28;20462;-93
2021/10/02 09:35:53;;;;;;;0.30;0.30;;;;;;;;;;4946289;28;20042;-95
2021/10/02 09:38:20;;;;;;;0.20;0.20;;;;;;;;;;4947696;28;20050;-94
2021/10/02 09:40:50;;;;;;;1.20;0.38;;;;;;;;;;4948254;28;20041;-93
2021/10/02 09:43:16;;;;;;;0.20;0.20;;;;;;;;;;4962818;28;20038;-95
2021/10/02 09:45:42;;;;;;;0.20;0.20;;;;;;;;;;4946367;28;20111;-95
2021/10/02 09:48:11;;;;;;;0.10;0.10;;;;;;;;;;4963408;28;20045;-95
2021/10/02 09:50:41;;;;;;;0.10;0.10;;;;;;;;;;4963281;28;20132;-93
2021/10/02 09:53:08;;;;;;;0.10;0.10;;;;;;;;;;4970441;28;20034;-89
2021/10/02 09:55:35;;;;;;;0.20;0.20;;;;;;;;;;4964341;28;20497;-95
2021/10/02 09:58:02;;;;;;;0.13;0.13;;;;;;;;;;4959652;28;20050;-94
2021/10/02 10:00:33;;;;;;;0.20;0.20;;;;;;;;;;4949109;28;20057;-94
2021/10/02 10:02:59;;;;;;;0.10;0.10;;;;;;;;;;4963686;28;20061;-95
2021/10/02 10:05:32;;;;;;;0.20;0.20;;;;;;;;;;4988419;28;20129;-93
2021/10/02 10:08:26;;;;;;;0.25;0.22;;;;;;;;;;4979486;28;20055;-92
2021/10/02 10:10:52;;;;;;;0.10;0.10;;;;;;;;;;4958977;28;20378;-94
2021/10/02 10:13:19;;;;;;;0.10;0.10;;;;;;;;;;4963320;28;20042;-93
2021/10/02 10:15:54;;;;;;;0.20;0.20;;;;;;;;;;4947382;28;20038;-89
2021/10/02 10:18:38;;;;;;;0.20;0.20;;;;;;;;;;4960849;28;20050;-92
2021/10/02 10:21:10;;;;;;;0.10;0.10;;;;;;;;;;4945710;28;20042;-92
2021/10/02 10:23:37;;;;;;;0.10;0.10;;;;;;;;;;4945148;28;20070;-93
2021/10/02 10:26:04;;;;;;;0.20;0.20;;;;;;;;;;4960636;28;20129;-93
2021/10/02 10:28:31;;;;;;;0.10;0.10;;;;;;;;;;4962264;28;20050;-95
2021/10/02 10:31:10;;;;;;;0.20;0.20;;;;;;;;;;4962834;28;20366;-92
2021/10/02 10:33:36;;;;;;;0.20;0.20;;;;;;;;;;4992909;28;20053;-91
2021/10/02 10:36:02;;;;;;;0.10;0.10;;;;;;;;;;4976685;28;20038;-94
2021/10/02 10:38:28;;;;;;;0.10;0.10;;;;;;;;;;4976627;28;20387;-94
2021/10/02 10:40:56;;;;;;;0.20;0.20;;;;;;;;;;4960664;28;20117;-94
2021/10/02 10:43:23;;;;;;;0.10;0.10;;;;;;;;;;4947128;28;20038;-93
2021/10/02 10:45:49;;;;;;;0.10;0.10;;;;;;;;;;4960749;28;20540;-94
2021/10/02 10:48:15;;;;;;;0.10;0.10;;;;;;;;;;4959872;28;20054;-94
2021/10/02 10:50:41;;;;;;;0.10;0.10;;;;;;;;;;4961725;28;20517;-91
2021/10/02 10:53:07;;;;;;;0.15;0.15;;;;;;;;;;4944531;28;20049;-92
2021/10/02 10:55:33;;;;;;;0.10;0.10;;;;;;;;;;4944685;28;20042;-92
2021/10/02 10:58:01;;;;;;;0.35;0.35;;;;;;;;;;4960296;28;20131;-92
2021/10/02 11:00:30;;;;;;;0.10;0.10;;;;;;;;;;4944198;28;20144;-92
2021/10/02 11:02:59;;;;;;;0.20;0.20;;;;;;;;;;4992691;28;20525;-92
2021/10/02 11:05:37;;;;;;;0.10;0.10;;;;;;;;;;4944593;28;20134;-94
2021/10/02 11:08:03;;;;;;;0.10;0.10;;;;;;;;;;4959942;28;20133;-92
2021/10/02 11:10:45;;;;;;;0.10;0.10;;;;;;;;;;4960349;28;20486;-93
2021/10/02 11:13:15;;;;;;;0.35;0.35;;;;;;;;;;4960656;28;20494;-93
2021/10/02 11:15:41;;;;;;;0.10;0.10;;;;;;;;;;4944738;28;20030;-92
2021/10/02 11:18:27;;;;;;;0.15;0.15;;;;;;;;;;4960337;28;20048;-92
2021/10/02 11:21:02;;;;;;;0.10;0.10;;;;;;;;;;4960642;28;20101;-90
2021/10/02 11:23:41;;;;;;;0.10;0.10;;;;;;;;;;4944321;28;20501;-92
2021/10/02 11:26:23;;;;;;;0.10;0.10;;;;;;;;;;4992442;28;20046;-92
2021/10/02 11:28:51;;;;;;;0.30;0.30;;;;;;;;;;4992426;28;20051;-91
2021/10/02 11:31:21;;;;;;;0.25;0.25;;;;;;;;;;4961873;28;20054;-87
2021/10/02 11:33:51;;;;;;;0.20;0.20;;;;;;;;;;4963517;28;20042;-88
2021/10/02 11:36:32;;;;;;;0.10;0.10;;;;;;;;;;4963958;28;20093;-89
2021/10/02 11:39:11;;;;;;;0.10;0.10;;;;;;;;;;4960348;28;20401;-90
2021/10/02 11:41:45;;;;;;;0.10;0.10;;;;;;;;;;4962862;28;20038;-90
2021/10/02 11:44:11;;;;;;;0.10;0.10;;;;;;;;;;4946953;28;20070;-90
2021/10/02 11:46:37;;;;;;;0.30;0.30;;;;;;;;;;4963154;28;20422;-90
2021/10/02 11:49:19;;;;;;;0.20;0.20;;;;;;;;;;4963320;28;20042;-89
2021/10/02 11:52:05;;;;;;;0.30;0.30;;;;;;;;;;4948639;28;20125;-91
2021/10/02 11:54:31;;;;;;;0.40;0.40;;;;;;;;;;4963093;28;20153;-90
2021/10/02 11:57:10;;;;;;;0.10;0.10;;;;;;;;;;5001978;28;20069;-91
2021/10/02 11:59:40;;;;;;;0.20;0.20;;;;;;;;;;4984502;28;20076;-90
2021/10/02 12:02:06;;;;;;;0.10;0.10;;;;;;;;;;4983425;28;20393;-90
2021/10/02 12:04:32;;;;;;;0.10;0.10;;;;;;;;;;4985202;28;20072;-88
2021/10/02 12:06:58;;;;;;;0.10;0.10;;;;;;;;;;5003058;28;20054;-89
2021/10/02 12:09:29;;;;;;;0.10;0.10;;;;;;;;;;4986440;28;20038;-87
2021/10/02 12:11:55;;;;;;;0.10;0.10;;;;;;;;;;4969245;28;20129;-89
2021/10/02 12:14:21;;;;;;;0.10;0.10;;;;;;;;;;4977811;28;20560;-89
2021/10/02 12:16:51;;;;;;;0.10;0.10;;;;;;;;;;4962432;28;20053;-89
2021/10/02 12:19:20;;;;;;;0.10;0.10;;;;;;;;;;4946343;28;20041;-89
2021/10/02 12:21:56;;;;;;;0.10;0.10;;;;;;;;;;4978245;28;20048;-90
2021/10/02 12:24:23;;;;;;;0.10;0.10;;;;;;;;;;4962247;28;20042;-88
2021/10/02 12:26:59;;;;;;;0.10;0.10;;;;;;;;;;4961968;28;20516;-89
2021/10/02 12:29:39;;;;;;;0.10;0.10;;;;;;;;;;4952096;28;20509;-88
2021/10/02 12:32:05;;;;;;;0.10;0.10;;;;;;;;;;4958738;28;20039;-90
2021/10/02 12:34:50;;;;;;;0.10;0.10;;;;;;;;;;4942695;28;20155;-89
2021/10/02 12:37:17;;;;;;;0.10;0.10;;;;;;;;;;4958868;28;20094;-88
2021/10/02 12:39:56;;;;;;;0.10;0.10;;;;;;;;;;4943099;28;20129;-91
2021/10/02 12:42:35;;;;;;;0.10;0.10;;;;;;;;;;4959510;28;20130;-91
2021/10/02 12:45:03;;;;;;;0.10;0.10;;;;;;;;;;4959315;28;20038;-93
2021/10/02 12:47:29;;;;;;;0.10;0.10;;;;;;;;;;4943557;28;20070;-94
2021/10/02 12:49:56;;;;;;;0.10;0.10;;;;;;;;;;4959385;28;20070;-92
2021/10/02 12:52:22;;;;;;;0.20;0.20;;;;;;;;;;4959596;28;20496;-94
2021/10/02 12:54:49;;;;;;;0.20;0.20;;;;;;;;;;4943663;28;20343;-95
2021/10/02 12:57:27;;;;;;;0.10;0.10;;;;;;;;;;4943404;28;20046;-92
2021/10/02 13:00:09;;;;;;;1.23;0.90;;;;;;;;;;4958975;28;20134;-93
2021/10/02 13:02:40;;;;;;;0.40;0.40;;;;;;;;;;4959157;28;20527;-93
2021/10/02 13:05:06;;;;;;;0.10;0.10;;;;;;;;;;4958994;28;20046;-93
2021/10/02 13:07:33;;;;;;;0.10;0.10;;;;;;;;;;4943015;28;20070;-92
2021/10/02 13:10:02;;;;;;;0.20;0.20;;;;;;;;;;4959080;28;20039;-92
2021/10/02 13:12:34;;;;;;;0.10;0.10;;;;;;;;;;4958838;28;20428;-94
2021/10/02 13:15:00;;;;;;;0.10;0.10;;;;;;;;;;4943082;28;20045;-94
2021/10/02 13:17:26;;;;;;;0.15;0.15;;;;;;;;;;4959186;28;20046;-93
2021/10/02 13:20:19;;;;;;;0.10;0.10;;;;;;;;;;4958950;28;20065;-92
2021/10/02 13:22:46;;;;;;;0.10;0.10;;;;;;;;;;4942335;28;20503;-92
2021/10/02 13:25:23;;;;;;;0.20;0.20;;;;;;;;;;4942858;28;20089;-93
2021/10/02 13:27:49;;;;;;;0.30;0.30;;;;;;;;;;4958229;28;20043;-91
2021/10/02 13:30:17;;;;;;;0.10;0.10;;;;;;;;;;4958335;28;20151;-93
2021/10/02 13:32:53;;;;;;;0.10;0.10;;;;;;;;;;4943092;28;20053;-91
2021/10/02 13:35:20;;;;;;;0.10;0.10;;;;;;;;;;4958439;28;20049;-94
2021/10/02 13:37:46;;;;;;;0.10;0.10;;;;;;;;;;4958935;28;20058;-92
2021/10/02 13:40:29;;;;;;;0.20;0.20;;;;;;;;;;4958452;28;20047;-90
2021/10/02 13:42:55;;;;;;;0.20;0.20;;;;;;;;;;4942599;28;20399;-92
2021/10/02 13:45:25;;;;;;;0.10;0.10;;;;;;;;;;4941976;28;20043;-91
2021/10/02 13:47:55;;;;;;;0.13;0.13;;;;;;;;;;4957894;28;20042;-92
2021/10/02 13:50:21;;;;;;;0.10;0.10;;;;;;;;;;4958628;28;20052;-92
2021/10/02 13:52:47;;;;;;;0.10;0.10;;;;;;;;;;4942437;28;20134;-92
2021/10/02 13:55:13;;;;;;;0.20;0.20;;;;;;;;;;4956980;28;20071;-89
2021/10/02 13:57:39;;;;;;;0.10;0.10;;;;;;;;;;4957336;28;20129;-93
2021/10/02 14:00:06;;;;;;;0.20;0.20;;;;;;;;;;4957644;28;20079;-90
2021/10/02 14:02:32;;;;;;;0.10;0.10;;;;;;;;;;4957422;28;20102;-90
2021/10/02 14:04:57;;;;;;;0.10;0.10;;;;;;;;;;4942232;28;20062;-92
2021/10/02 14:07:23;;;;;;;0.10;0.10;;;;;;;;;;4941584;28;20038;-91
2021/10/02 14:09:49;;;;;;;0.10;0.10;;;;;;;;;;4956893;28;20491;-89
2021/10/02 14:12:15;;;;;;;0.20;0.20;;;;;;;;;;4959803;28;20451;-89
2021/10/02 14:14:41;;;;;;;0.20;0.20;;;;;;;;;;4960779;28;20046;-91
2021/10/02 14:17:08;;;;;;;0.20;0.20;;;;;;;;;;4976599;28;20042;-91
2021/10/02 14:19:35;;;;;;;0.10;0.10;;;;;;;;;;4976641;28;20042;-89
2021/10/02 14:22:01;;;;;;;0.10;0.10;;;;;;;;;;4944641;28;20043;-91
2021/10/02 14:24:27;;;;;;;0.20;0.20;;;;;;;;;;4976560;28;20061;-91
2021/10/02 14:26:53;;;;;;;0.10;0.10;;;;;;;;;;4944484;28;20478;-91
2021/10/02 14:29:19;;;;;;;0.10;0.10;;;;;;;;;;4944567;28;20381;-90
2021/10/02 14:31:45;;;;;;;0.10;0.10;;;;;;;;;;4944382;28;20413;-91
2021/10/02 14:34:13;;;;;;;0.10;0.10;;;;;;;;;;4960424;28;20038;-90
2021/10/02 14:36:39;;;;;;;0.10;0.10;;;;;;;;;;4944392;28;20038;-90
2021/10/02 14:39:06;;;;;;;0.10;0.10;;;;;;;;;;4960685;28;20038;-91
2021/10/02 14:41:32;;;;;;;0.10;0.10;;;;;;;;;;4960552;28;20069;-92
2021/10/02 14:43:58;;;;;;;0.10;0.10;;;;;;;;;;4960489;28;20061;-92
2021/10/02 14:46:24;;;;;;;0.10;0.10;;;;;;;;;;4959661;28;20478;-89
2021/10/02 14:48:50;;;;;;;0.10;0.10;;;;;;;;;;4975914;28;20057;-90
2021/10/02 14:51:17;;;;;;;0.10;0.10;;;;;;;;;;4975695;28;20050;-89
2021/10/02 14:53:43;;;;;;;0.10;0.10;;;;;;;;;;4944015;28;20061;-89
2021/10/02 14:56:09;;;;;;;0.10;0.10;;;;;;;;;;4975548;28;20407;-89
2021/10/02 14:58:37;;;;;;;0.10;0.10;;;;;;;;;;4975869;28;20096;-89
2021/10/02 15:01:03;;;;;;;0.20;0.20;;;;;;;;;;4978316;28;20054;-90
2021/10/02 15:03:29;;;;;;;0.20;0.20;;;;;;;;;;4959399;28;20057;-88
2021/10/02 15:05:55;;;;;;;0.10;0.10;;;;;;;;;;4974829;28;20449;-88
2021/10/02 15:08:21;;;;;;;0.10;0.10;;;;;;;;;;4974757;28;20039;-89
2021/10/02 15:10:47;;;;;;;0.10;0.10;;;;;;;;;;4959014;28;20489;-89
2021/10/02 15:13:15;;;;;;;0.20;0.20;;;;;;;;;;4942991;28;20589;-87
2021/10/02 15:15:42;;;;;;;0.10;0.10;;;;;;;;;;4975041;28;20069;-93
2021/10/02 15:18:11;;;;;;;0.10;0.10;;;;;;;;;;4959821;28;20097;-89
2021/10/02 15:20:37;;;;;;;0.10;0.10;;;;;;;;;;4975889;28;20050;-90
2021/10/02 15:23:03;;;;;;;0.10;0.10;;;;;;;;;;4975610;28;20102;-90
2021/10/02 15:25:29;;;;;;;0.10;0.10;;;;;;;;;;4943814;28;20042;-91
2021/10/02 15:28:02;;;;;;;0.10;0.10;;;;;;;;;;4959771;28;20049;-92
2021/10/02 15:30:27;;;;;;;0.30;0.30;;;;;;;;;;4960505;28;20228;-90
2021/10/02 15:32:53;;;;;;;0.15;0.15;;;;;;;;;;4943923;28;20153;-91
2021/10/02 15:35:19;;;;;;;0.20;0.20;;;;;;;;;;4943615;28;20043;-90
2021/10/02 15:37:45;;;;;;;0.10;0.10;;;;;;;;;;4960158;28;20122;-93
2021/10/02 15:40:15;;;;;;;0.10;0.10;;;;;;;;;;4960027;28;20133;-92
2021/10/02 15:42:43;;;;;;;0.20;0.20;;;;;;;;;;4944159;28;20448;-90
2021/10/02 15:45:09;;;;;;;0.10;0.10;;;;;;;;;;4943374;28;20042;-90
2021/10/02 15:47:35;;;;;;;0.10;0.10;;;;;;;;;;4959191;28;20035;-89
2021/10/02 15:50:01;;;;;;;0.10;0.10;;;;;;;;;;4943627;28;20368;-90
2021/10/02 15:52:27;;;;;;;0.10;0.10;;;;;;;;;;4943509;28;20042;-90
2021/10/02 15:54:53;;;;;;;0.30;0.30;;;;;;;;;;4975012;28;20445;-90
2021/10/02 15:57:22;;;;;;;0.10;0.10;;;;;;;;;;4959156;28;20074;-90
2021/10/02 15:59:48;;;;;;;0.10;0.10;;;;;;;;;;4943668;28;20482;-88
2021/10/02 16:02:33;;;;;;;0.10;0.10;;;;;;;;;;4974966;28;20050;-91
2021/10/02 16:05:03;;;;;;;0.20;0.20;;;;;;;;;;4958883;28;20453;-90
2021/10/02 16:07:29;;;;;;;0.20;0.20;;;;;;;;;;4943189;28;20065;-91
2021/10/02 16:09:55;;;;;;;0.20;0.20;;;;;;;;;;4961644;28;20129;-90